Westmorland, California
Current Conditions -  °F | °C
As of 8:53 AM on Saturday 20 Dec 2014 (Local Time) from KIPL Reporting Station
Clear Clear  
Wind Chill: 49°   Ceiling: Unl
Heat Index: 49°   Visibility: 10mi
Dew Point: 43°   Wind: 3mph
Humidity: 80%   Direction: 280°W
Pressure: 30.16"   Gusts: NA
Location:  33.04°N, 115.62°W
Report Text: KIPL 201653Z AUTO 28003KT 10SM CLR 09/06 A3016 RMK AO2 SLP213 T00940061
Loading
Personal Weather Stations






























Interactive Weather Map New forecast layout! Learn more

10-Day Weather Forecast

Advertisements
Track Severe Weather on mobile